Time;durP1;ratioP1;P1;durP2;ratioP2;P2;SDS_P1;SDS_P2;PMS_P1;PMS_P2;Temp;Humidity;BMP_temperature;BMP_pressure;BME280_temperature;BME280_humidity;BME280_pressure;Samples;Min_cycle;Max_cycle;Signal;HPM_P1;HPM_P2
2023/04/18 00:01:52;;;;;;;12.07;8.97;;;11.30;99.90;;;;;;7390287;19;20157;-82
2023/04/18 00:04:18;;;;;;;12.20;8.43;;;11.30;99.90;;;;;;7384576;19;20142;-82
2023/04/18 00:06:45;;;;;;;12.97;8.97;;;11.30;99.90;;;;;;7388065;19;20127;-81
2023/04/18 00:09:10;;;;;;;12.63;9.90;;;11.20;99.90;;;;;;7385434;19;20157;-82
2023/04/18 00:11:36;;;;;;;10.60;8.20;;;11.20;99.90;;;;;;7387585;19;20201;-80
2023/04/18 00:14:02;;;;;;;10.10;8.23;;;11.20;99.90;;;;;;7386170;19;20138;-82
2023/04/18 00:16:28;;;;;;;11.33;8.90;;;11.10;99.90;;;;;;7385453;19;20563;-82
2023/04/18 00:18:54;;;;;;;13.10;9.07;;;11.10;99.90;;;;;;7388975;19;20606;-82
2023/04/18 00:21:24;;;;;;;10.93;8.57;;;11.10;99.90;;;;;;7389053;19;20165;-82
2023/04/18 00:23:50;;;;;;;12.40;8.47;;;11.20;99.90;;;;;;7385003;19;20180;-82
2023/04/18 00:26:16;;;;;;;12.73;8.40;;;11.10;99.90;;;;;;7388560;19;20135;-81
2023/04/18 00:28:43;;;;;;;12.30;9.03;;;11.10;99.90;;;;;;7385646;19;20146;-82
2023/04/18 00:31:09;;;;;;;11.27;8.80;;;11.10;99.90;;;;;;7386086;19;20155;-82
2023/04/18 00:33:34;;;;;;;10.40;8.17;;;11.10;99.90;;;;;;7382038;19;20246;-81
2023/04/18 00:36:00;;;;;;;10.73;8.10;;;11.20;99.90;;;;;;7385853;19;20255;-82
2023/04/18 00:38:26;;;;;;;11.33;8.17;;;11.20;99.90;;;;;;7389402;19;20206;-81
2023/04/18 00:40:51;;;;;;;13.67;8.70;;;11.20;99.90;;;;;;7387285;19;20142;-83
2023/04/18 00:43:17;;;;;;;11.37;8.50;;;11.10;99.90;;;;;;7388820;19;20127;-83
2023/04/18 00:45:43;;;;;;;11.20;8.90;;;11.20;99.90;;;;;;7385531;19;20142;-82
2023/04/18 00:48:09;;;;;;;11.07;8.07;;;11.20;99.90;;;;;;7388134;19;20134;-82
2023/04/18 00:50:36;;;;;;;15.67;8.80;;;11.20;99.90;;;;;;7385677;19;20159;-83
2023/04/18 00:53:02;;;;;;;11.77;8.90;;;11.20;99.90;;;;;;7387238;19;20130;-82
2023/04/18 00:55:28;;;;;;;11.37;8.73;;;11.20;99.90;;;;;;7387431;19;20156;-82
2023/04/18 00:57:55;;;;;;;9.87;7.97;;;11.20;99.90;;;;;;7385459;19;20580;-82
2023/04/18 01:00:20;;;;;;;10.47;8.40;;;11.10;99.90;;;;;;7386193;19;20146;-83
2023/04/18 01:02:48;;;;;;;13.00;8.40;;;11.20;99.90;;;;;;7385874;19;20142;-81
2023/04/18 01:05:14;;;;;;;9.87;7.93;;;11.10;99.90;;;;;;7392409;19;20142;-83
2023/04/18 01:07:40;;;;;;;12.67;8.07;;;11.10;99.90;;;;;;7394687;19;20469;-82
2023/04/18 01:10:08;;;;;;;10.33;7.80;;;11.00;99.90;;;;;;7392954;19;20214;-82
2023/04/18 01:12:36;;;;;;;11.27;8.40;;;11.10;99.90;;;;;;7393339;19;20142;-82
2023/04/18 01:15:06;;;;;;;10.40;8.23;;;11.10;99.90;;;;;;7392523;19;20159;-82
2023/04/18 01:17:33;;;;;;;13.37;8.30;;;11.10;99.90;;;;;;7391826;19;20138;-82
2023/04/18 01:20:00;;;;;;;12.87;8.67;;;11.10;99.90;;;;;;7395993;19;20139;-82
2023/04/18 01:22:27;;;;;;;11.07;8.40;;;11.10;99.90;;;;;;7393098;19;20130;-82
2023/04/18 01:24:53;;;;;;;10.50;7.27;;;11.20;99.90;;;;;;7392143;19;20278;-81
2023/04/18 01:27:19;;;;;;;10.13;7.60;;;11.20;99.90;;;;;;7387393;19;20150;-81
2023/04/18 01:29:44;;;;;;;14.00;8.93;;;11.10;99.90;;;;;;7390794;19;20143;-82
2023/04/18 01:32:10;;;;;;;11.23;8.40;;;11.10;99.90;;;;;;7394007;19;20158;-82
2023/04/18 01:34:36;;;;;;;12.30;9.23;;;11.10;99.90;;;;;;7391569;19;20150;-81
2023/04/18 01:37:02;;;;;;;11.60;8.13;;;11.10;99.90;;;;;;7392238;19;20206;-82
2023/04/18 01:39:27;;;;;;;10.60;8.27;;;11.20;99.90;;;;;;7393696;19;20131;-82
2023/04/18 01:41:53;;;;;;;11.30;8.30;;;11.20;99.90;;;;;;7387192;19;20147;-82
2023/04/18 01:44:19;;;;;;;10.97;7.97;;;11.10;99.90;;;;;;7391311;19;20137;-82
2023/04/18 01:46:44;;;;;;;13.27;8.47;;;11.10;99.90;;;;;;7392625;19;20598;-82
2023/04/18 01:49:10;;;;;;;12.60;8.10;;;11.10;99.90;;;;;;7389851;19;20130;-82
2023/04/18 01:51:37;;;;;;;11.37;8.33;;;11.10;99.90;;;;;;7391494;19;20142;-81
2023/04/18 01:54:03;;;;;;;11.23;8.00;;;11.10;99.90;;;;;;7392577;19;20138;-82
2023/04/18 01:56:30;;;;;;;12.10;8.57;;;11.10;99.90;;;;;;7391230;19;20134;-82
2023/04/18 01:58:55;;;;;;;12.00;8.70;;;11.00;99.90;;;;;;7390755;19;20126;-82
2023/04/18 02:01:21;;;;;;;12.53;8.43;;;11.00;99.90;;;;;;7392044;19;20143;-81
2023/04/18 02:03:47;;;;;;;10.27;7.67;;;10.90;99.90;;;;;;7390536;19;20447;-82
2023/04/18 02:06:12;;;;;;;10.17;7.53;;;10.80;99.90;;;;;;7390710;19;20133;-82
2023/04/18 02:08:38;;;;;;;14.00;8.33;;;10.90;99.90;;;;;;7391666;19;20155;-82
2023/04/18 02:11:04;;;;;;;13.57;8.77;;;10.90;99.90;;;;;;7385904;19;20201;-83
2023/04/18 02:13:30;;;;;;;9.80;7.97;;;11.00;99.90;;;;;;7392219;19;20139;-81
2023/04/18 02:15:56;;;;;;;11.57;8.33;;;11.00;99.90;;;;;;7388091;19;20161;-81
2023/04/18 02:18:23;;;;;;;11.03;7.57;;;11.00;99.90;;;;;;7389262;19;20275;-82
2023/04/18 02:20:50;;;;;;;10.67;7.67;;;11.00;99.90;;;;;;7389706;19;20138;-82
2023/04/18 02:23:19;;;;;;;11.50;7.80;;;10.90;99.90;;;;;;7389017;19;20150;-83
2023/04/18 02:25:45;;;;;;;10.90;8.33;;;10.90;99.90;;;;;;7389135;19;20134;-84
2023/04/18 02:28:11;;;;;;;10.37;7.90;;;11.00;99.90;;;;;;7390524;19;20170;-82
2023/04/18 02:30:36;;;;;;;12.00;7.57;;;10.90;99.90;;;;;;7389748;19;20955;-84
2023/04/18 02:33:02;;;;;;;10.60;7.73;;;10.90;99.90;;;;;;7389220;19;20146;-82
2023/04/18 02:35:28;;;;;;;10.70;7.70;;;10.90;99.90;;;;;;7390314;19;20571;-80
2023/04/18 02:37:56;;;;;;;11.03;8.00;;;10.90;99.90;;;;;;7389567;19;20138;-82
2023/04/18 02:40:23;;;;;;;12.47;8.47;;;10.90;99.90;;;;;;7390498;19;20557;-82
2023/04/18 02:42:48;;;;;;;11.20;9.10;;;10.80;99.90;;;;;;7392811;19;20151;-81
2023/04/18 02:45:14;;;;;;;11.53;8.00;;;10.80;99.90;;;;;;7390500;19;20147;-81
2023/04/18 02:47:40;;;;;;;11.43;8.40;;;10.70;99.90;;;;;;7390586;19;20146;-81
2023/04/18 02:50:07;;;;;;;10.50;7.90;;;10.80;99.90;;;;;;7390685;19;20167;-81
2023/04/18 02:52:32;;;;;;;11.77;8.13;;;10.70;99.90;;;;;;7389547;19;20149;-80
2023/04/18 02:54:58;;;;;;;9.70;7.43;;;10.70;99.90;;;;;;7388435;19;20139;-81
2023/04/18 02:57:24;;;;;;;10.67;7.67;;;10.70;99.90;;;;;;7388402;19;20174;-81
2023/04/18 02:59:50;;;;;;;10.03;7.60;;;10.70;99.90;;;;;;7390599;19;20139;-82
2023/04/18 03:02:16;;;;;;;11.80;7.53;;;10.70;99.90;;;;;;7387664;19;20194;-81
2023/04/18 03:04:41;;;;;;;9.70;7.50;;;10.70;99.90;;;;;;7387623;19;20829;-83
2023/04/18 03:07:07;;;;;;;10.47;7.27;;;10.70;99.90;;;;;;7389157;19;20138;-82
2023/04/18 03:09:34;;;;;;;9.30;6.93;;;10.70;99.90;;;;;;7386769;19;20153;-81
2023/04/18 03:12:01;;;;;;;11.60;7.97;;;10.60;99.90;;;;;;7387247;19;20188;-81
2023/04/18 03:14:26;;;;;;;11.63;7.20;;;10.60;99.90;;;;;;7388634;19;20615;-80
2023/04/18 03:16:52;;;;;;;9.57;7.37;;;10.60;99.90;;;;;;7387703;19;20154;-82
2023/04/18 03:19:18;;;;;;;10.50;7.10;;;10.70;99.90;;;;;;7389282;19;20588;-81
2023/04/18 03:21:44;;;;;;;12.83;7.60;;;10.60;99.90;;;;;;7387768;19;20229;-81
2023/04/18 03:24:10;;;;;;;9.97;7.07;;;10.60;99.90;;;;;;7387359;19;20126;-81
2023/04/18 03:26:35;;;;;;;11.23;7.47;;;10.50;99.90;;;;;;7387214;19;20135;-81
2023/04/18 03:29:01;;;;;;;10.93;7.40;;;10.50;99.90;;;;;;7386152;19;20205;-81
2023/04/18 03:31:28;;;;;;;10.50;7.20;;;10.40;99.90;;;;;;7389934;19;20176;-81
2023/04/18 03:33:53;;;;;;;12.00;7.27;;;10.40;99.90;;;;;;7385236;19;20147;-81
2023/04/18 03:36:24;;;;;;;10.77;7.93;;;10.50;99.90;;;;;;7389040;19;20270;-81
2023/04/18 03:38:49;;;;;;;9.80;7.50;;;10.40;99.90;;;;;;7383704;19;20874;-81
2023/04/18 03:41:15;;;;;;;11.10;7.37;;;10.30;99.90;;;;;;7386804;19;20164;-82
2023/04/18 03:43:41;;;;;;;9.97;7.17;;;10.30;99.90;;;;;;7387026;19;20159;-82
2023/04/18 03:46:08;;;;;;;13.57;8.00;;;10.30;99.90;;;;;;7389333;19;20142;-81
2023/04/18 03:48:36;;;;;;;10.53;7.60;;;10.40;99.90;;;;;;7388243;19;20138;-81
2023/04/18 03:51:01;;;;;;;9.67;6.93;;;10.40;99.90;;;;;;7387388;19;20146;-81
2023/04/18 03:53:27;;;;;;;10.57;7.60;;;10.40;99.90;;;;;;7390654;19;20215;-81
2023/04/18 03:55:55;;;;;;;10.17;7.33;;;10.50;99.90;;;;;;7392968;19;20486;-80
2023/04/18 03:58:22;;;;;;;9.23;7.00;;;10.40;99.90;;;;;;7389238;19;20208;-81
2023/04/18 04:00:51;;;;;;;10.80;7.33;;;10.30;99.90;;;;;;7388792;19;20142;-81
2023/04/18 04:03:18;;;;;;;11.60;8.07;;;10.30;99.90;;;;;;7388042;19;20485;-80
2023/04/18 04:05:43;;;;;;;8.33;7.10;;;10.40;99.90;;;;;;7390011;19;20139;-81
2023/04/18 04:08:09;;;;;;;9.90;7.63;;;10.40;99.90;;;;;;7388211;19;20173;-81
2023/04/18 04:10:35;;;;;;;8.27;7.03;;;10.10;99.90;;;;;;7386934;19;20673;-80
2023/04/18 04:13:00;;;;;;;12.10;7.90;;;10.20;99.90;;;;;;7390846;19;20583;-82
2023/04/18 04:15:26;;;;;;;12.83;7.47;;;10.30;99.90;;;;;;7386478;19;20178;-81
2023/04/18 04:17:52;;;;;;;11.73;7.47;;;10.40;99.90;;;;;;7388802;19;20203;-81
2023/04/18 04:20:22;;;;;;;10.77;8.00;;;10.40;99.90;;;;;;7386892;19;20150;-80
2023/04/18 04:22:51;;;;;;;10.93;7.80;;;10.30;99.90;;;;;;7386879;19;20147;-81
2023/04/18 04:25:18;;;;;;;10.10;7.30;;;10.50;99.90;;;;;;7386788;19;20623;-82
2023/04/18 04:27:44;;;;;;;11.30;7.80;;;10.30;99.90;;;;;;7386270;19;20154;-81
2023/04/18 04:30:10;;;;;;;10.53;7.73;;;10.30;99.90;;;;;;7386904;19;20674;-81
2023/04/18 04:32:37;;;;;;;11.57;8.37;;;10.30;99.90;;;;;;7388162;19;20135;-82
2023/04/18 04:35:03;;;;;;;12.70;8.00;;;10.40;99.90;;;;;;7387441;19;20168;-81
2023/04/18 04:37:29;;;;;;;10.60;7.60;;;10.40;99.90;;;;;;7389428;19;20163;-81
2023/04/18 04:39:55;;;;;;;10.50;7.57;;;10.40;99.90;;;;;;7395807;19;20142;-82
2023/04/18 04:42:23;;;;;;;11.73;7.80;;;10.40;99.90;;;;;;7392477;19;20217;-81
2023/04/18 04:44:49;;;;;;;10.90;7.90;;;10.30;99.90;;;;;;7395831;19;20603;-81
2023/04/18 04:47:15;;;;;;;11.33;8.03;;;10.30;99.90;;;;;;7394616;19;20138;-81
2023/04/18 04:49:41;;;;;;;11.50;8.13;;;10.30;99.90;;;;;;7394599;19;20145;-81
2023/04/18 04:52:06;;;;;;;9.00;7.03;;;10.40;99.90;;;;;;7396384;19;20178;-80
2023/04/18 04:54:32;;;;;;;12.93;9.07;;;10.40;99.90;;;;;;7395803;19;20135;-81
2023/04/18 04:56:58;;;;;;;9.83;6.97;;;10.30;99.90;;;;;;7393663;19;20503;-82
2023/04/18 04:59:24;;;;;;;13.77;8.83;;;10.30;99.90;;;;;;7394460;19;20134;-81
2023/04/18 05:01:50;;;;;;;11.27;7.50;;;10.40;99.90;;;;;;7394699;19;20168;-81
2023/04/18 05:04:16;;;;;;;11.27;8.33;;;10.30;99.90;;;;;;7395787;19;20142;-81
2023/04/18 05:06:42;;;;;;;10.80;8.67;;;10.40;99.90;;;;;;7396661;19;20592;-83
2023/04/18 05:09:08;;;;;;;13.77;8.73;;;10.40;99.90;;;;;;7395135;19;20251;-82
2023/04/18 05:11:34;;;;;;;12.43;8.77;;;10.40;99.90;;;;;;7393555;19;20193;-82
2023/04/18 05:14:02;;;;;;;12.23;8.47;;;10.10;99.90;;;;;;7395129;19;20131;-82
2023/04/18 05:16:28;;;;;;;12.20;8.00;;;10.30;99.90;;;;;;7395147;19;20250;-80
2023/04/18 05:18:53;;;;;;;11.50;7.97;;;10.30;99.90;;;;;;7395591;19;20134;-79
2023/04/18 05:21:19;;;;;;;11.33;7.50;;;10.40;99.90;;;;;;7395428;19;20138;-81
2023/04/18 05:23:45;;;;;;;12.70;8.10;;;10.40;99.90;;;;;;7394255;19;20150;-82
2023/04/18 05:26:19;;;;;;;11.87;8.10;;;10.40;99.90;;;;;;7394861;19;20130;-81
2023/04/18 05:28:46;;;;;;;9.57;7.53;;;10.30;99.90;;;;;;7394249;19;20158;-81
2023/04/18 05:31:11;;;;;;;13.47;8.50;;;10.30;99.90;;;;;;7389469;19;20571;-82
2023/04/18 05:33:37;;;;;;;11.33;7.60;;;10.40;99.90;;;;;;7393810;19;20194;-81
2023/04/18 05:36:03;;;;;;;11.40;8.60;;;10.50;99.90;;;;;;7391661;19;20142;-81
2023/04/18 05:38:29;;;;;;;11.70;7.83;;;10.50;99.90;;;;;;7393665;19;20127;-80
2023/04/18 05:40:58;;;;;;;11.33;7.47;;;10.50;99.90;;;;;;7394776;19;20142;-80
2023/04/18 05:43:24;;;;;;;11.03;8.40;;;10.50;99.90;;;;;;7393847;19;20134;-80
2023/04/18 05:45:53;;;;;;;12.00;8.00;;;10.40;99.90;;;;;;7400508;19;20435;-80
2023/04/18 05:48:21;;;;;;;11.83;8.33;;;10.40;99.90;;;;;;7400380;19;20131;-81
2023/04/18 05:50:47;;;;;;;10.90;8.27;;;10.30;99.90;;;;;;7395719;19;20160;-81
2023/04/18 05:53:13;;;;;;;13.40;8.77;;;10.30;99.90;;;;;;7399767;19;20126;-81
2023/04/18 05:55:39;;;;;;;12.47;8.63;;;10.30;99.90;;;;;;7399145;19;20159;-81
2023/04/18 05:58:06;;;;;;;11.67;8.10;;;10.30;99.90;;;;;;7401776;19;20151;-81
2023/04/18 06:00:32;;;;;;;10.17;7.93;;;10.20;99.90;;;;;;7394224;19;20162;-80
2023/04/18 06:02:57;;;;;;;13.10;9.10;;;10.30;99.90;;;;;;7391367;19;20130;-79
2023/04/18 06:05:23;;;;;;;12.23;8.97;;;10.50;99.90;;;;;;7390478;19;20856;-78
2023/04/18 06:07:49;;;;;;;12.40;8.30;;;10.50;99.90;;;;;;7391938;19;20142;-79
2023/04/18 06:10:15;;;;;;;12.63;8.80;;;10.50;99.90;;;;;;7394941;19;21035;-81
2023/04/18 06:12:41;;;;;;;11.80;8.83;;;10.50;99.90;;;;;;7406452;19;20126;-81
2023/04/18 06:15:07;;;;;;;9.43;7.53;;;10.40;99.90;;;;;;7415064;19;20127;-80
2023/04/18 06:17:33;;;;;;;12.37;9.17;;;10.50;99.90;;;;;;7409466;19;20158;-80
2023/04/18 06:20:00;;;;;;;12.07;8.70;;;10.60;99.90;;;;;;7405779;19;20796;-79
2023/04/18 06:22:27;;;;;;;14.80;9.70;;;10.60;99.90;;;;;;7396224;19;20131;-79
2023/04/18 06:24:54;;;;;;;13.27;9.13;;;10.50;99.90;;;;;;7387381;19;20147;-80
2023/04/18 06:27:20;;;;;;;11.73;8.37;;;10.50;99.90;;;;;;7389331;19;20135;-81
2023/04/18 06:29:46;;;;;;;12.13;8.87;;;10.50;99.90;;;;;;7388549;19;20730;-80
2023/04/18 06:32:11;;;;;;;12.50;8.10;;;10.60;99.90;;;;;;7390021;19;20182;-81
2023/04/18 06:34:38;;;;;;;13.20;8.67;;;10.60;99.90;;;;;;7386995;19;20178;-80
2023/04/18 06:37:04;;;;;;;9.93;8.07;;;10.80;99.90;;;;;;7386611;19;20500;-80
2023/04/18 06:39:30;;;;;;;10.50;8.03;;;10.90;99.90;;;;;;7388824;19;20161;-81
2023/04/18 06:41:56;;;;;;;11.00;7.83;;;10.80;99.90;;;;;;7390491;19;20527;-79
2023/04/18 06:44:22;;;;;;;11.50;7.83;;;10.80;99.90;;;;;;7390764;19;20600;-80
2023/04/18 06:46:48;;;;;;;14.40;8.30;;;10.80;99.90;;;;;;7392266;19;20161;-81
2023/04/18 06:49:14;;;;;;;13.20;8.90;;;10.80;99.90;;;;;;7391772;19;20131;-81
2023/04/18 06:51:40;;;;;;;11.30;8.10;;;10.90;99.90;;;;;;7390471;19;20159;-80
2023/04/18 06:54:05;;;;;;;12.30;8.80;;;10.80;99.90;;;;;;7389580;19;20142;-81
2023/04/18 06:56:32;;;;;;;13.10;9.20;;;10.80;99.90;;;;;;7390271;19;20719;-81
2023/04/18 06:58:58;;;;;;;11.67;8.70;;;10.80;99.90;;;;;;7393236;19;20141;-80
2023/04/18 07:01:24;;;;;;;14.07;9.70;;;10.80;99.90;;;;;;7388727;19;20134;-80
2023/04/18 07:03:49;;;;;;;10.83;8.60;;;10.80;99.90;;;;;;7391480;19;20146;-80
2023/04/18 07:06:15;;;;;;;14.97;8.47;;;11.00;99.90;;;;;;7390958;19;20198;-81
2023/04/18 07:08:41;;;;;;;11.10;8.17;;;10.80;99.90;;;;;;7390319;19;20130;-81
2023/04/18 07:11:07;;;;;;;11.40;8.60;;;10.80;99.90;;;;;;7391969;19;20156;-80
2023/04/18 07:13:32;;;;;;;15.10;8.23;;;10.90;99.90;;;;;;7388170;19;20160;-81
2023/04/18 07:16:00;;;;;;;13.50;8.10;;;10.90;99.90;;;;;;7389349;19;20135;-81
2023/04/18 07:18:26;;;;;;;12.87;8.87;;;11.00;99.90;;;;;;7389265;19;20590;-80
2023/04/18 07:20:52;;;;;;;15.20;9.10;;;11.00;99.90;;;;;;7388665;19;20787;-79
2023/04/18 07:23:17;;;;;;;12.47;8.43;;;11.00;99.90;;;;;;7387539;19;20139;-80
2023/04/18 07:25:44;;;;;;;14.23;8.00;;;11.00;99.90;;;;;;7390341;19;20134;-80
2023/04/18 07:28:09;;;;;;;11.50;8.33;;;11.00;99.90;;;;;;7388658;19;20145;-80
2023/04/18 07:30:35;;;;;;;10.60;7.77;;;11.00;99.90;;;;;;7388369;19;20611;-80
2023/04/18 07:33:01;;;;;;;11.93;8.70;;;10.90;99.90;;;;;;7386086;19;20130;-79
2023/04/18 07:35:26;;;;;;;11.53;8.37;;;10.90;99.90;;;;;;7388023;19;20158;-81
2023/04/18 07:37:53;;;;;;;14.43;8.93;;;10.90;99.90;;;;;;7392144;19;20145;-80
2023/04/18 07:40:18;;;;;;;11.83;8.53;;;11.00;99.90;;;;;;7387416;19;20142;-80
2023/04/18 07:42:44;;;;;;;11.50;7.60;;;11.00;99.90;;;;;;7390706;19;20570;-79
2023/04/18 07:45:10;;;;;;;14.60;8.50;;;11.00;99.90;;;;;;7388165;19;20145;-79
2023/04/18 07:47:36;;;;;;;14.83;8.40;;;11.10;99.90;;;;;;7390312;19;20131;-80
2023/04/18 07:50:03;;;;;;;12.57;8.10;;;11.10;99.90;;;;;;7388297;19;20607;-80
2023/04/18 07:52:29;;;;;;;16.50;10.10;;;11.10;99.90;;;;;;7387727;19;20142;-80
2023/04/18 07:54:55;;;;;;;12.47;8.30;;;11.10;99.90;;;;;;7388409;19;20146;-79
2023/04/18 07:57:23;;;;;;;14.57;9.17;;;11.10;99.90;;;;;;7387928;19;20138;-79
2023/04/18 07:59:52;;;;;;;12.10;8.40;;;11.10;99.90;;;;;;7388819;19;20142;-80
2023/04/18 08:02:26;;;;;;;11.97;8.73;;;11.20;99.90;;;;;;7390404;19;20151;-79
2023/04/18 08:04:54;;;;;;;10.63;8.37;;;11.30;99.90;;;;;;7394336;19;20150;-80
2023/04/18 08:07:20;;;;;;;12.37;8.43;;;11.40;99.90;;;;;;7394848;19;20170;-80
2023/04/18 08:09:47;;;;;;;11.93;8.67;;;11.40;99.90;;;;;;7390244;19;20139;-79
2023/04/18 08:12:13;;;;;;;11.50;8.47;;;11.40;99.90;;;;;;7389424;19;20203;-80
2023/04/18 08:14:38;;;;;;;11.33;8.40;;;11.50;99.90;;;;;;7401914;19;20173;-80
2023/04/18 08:17:04;;;;;;;11.63;8.70;;;11.60;99.90;;;;;;7403959;19;20131;-80
2023/04/18 08:19:30;;;;;;;12.20;8.67;;;11.70;99.90;;;;;;7398584;19;20242;-80
2023/04/18 08:22:07;;;;;;;13.03;8.70;;;11.80;99.90;;;;;;7397187;19;20614;-79
2023/04/18 08:24:33;;;;;;;11.93;8.33;;;11.80;99.90;;;;;;7398503;19;20145;-78
2023/04/18 08:26:59;;;;;;;11.37;8.17;;;11.80;99.90;;;;;;7396677;19;20255;-80
2023/04/18 08:29:25;;;;;;;13.27;8.93;;;11.80;99.90;;;;;;7395434;19;20659;-81
2023/04/18 08:31:51;;;;;;;11.27;9.10;;;11.80;99.90;;;;;;7395911;19;20142;-81
2023/04/18 08:34:17;;;;;;;11.90;8.63;;;11.80;99.90;;;;;;7392527;19;20560;-78
2023/04/18 08:36:43;;;;;;;11.67;8.23;;;11.90;99.90;;;;;;7393070;19;20171;-80
2023/04/18 08:39:09;;;;;;;13.47;8.47;;;11.90;99.90;;;;;;7397373;19;20476;-80
2023/04/18 08:41:39;;;;;;;15.10;8.63;;;12.00;99.90;;;;;;7392318;19;20157;-80
2023/04/18 08:44:06;;;;;;;14.43;9.20;;;12.00;99.90;;;;;;7393594;19;20166;-80
2023/04/18 08:46:36;;;;;;;11.57;7.73;;;12.20;99.90;;;;;;7394073;19;20137;-80
2023/04/18 08:49:05;;;;;;;11.67;8.60;;;12.20;99.90;;;;;;7396703;19;20142;-80
2023/04/18 08:51:34;;;;;;;12.10;8.83;;;12.30;99.90;;;;;;7405612;19;20138;-79
2023/04/18 08:54:03;;;;;;;14.37;8.10;;;12.40;99.90;;;;;;7396098;19;20373;-81
2023/04/18 08:56:30;;;;;;;12.27;8.40;;;12.40;99.90;;;;;;7391990;19;20524;-80
2023/04/18 08:58:59;;;;;;;14.37;8.03;;;12.60;99.90;;;;;;7395449;19;20159;-80
2023/04/18 09:01:51;;;;;;;14.90;9.30;;;12.80;99.90;;;;;;7393698;19;20871;-81
2023/04/18 09:04:33;;;;;;;13.40;8.70;;;12.80;99.90;;;;;;7394605;19;20162;-81
2023/04/18 09:06:59;;;;;;;12.50;7.67;;;12.70;99.90;;;;;;7397485;19;20146;-80
2023/04/18 09:09:26;;;;;;;12.83;8.13;;;12.70;99.90;;;;;;7395723;19;20599;-80
2023/04/18 09:12:17;;;;;;;11.63;8.60;;;12.70;99.90;;;;;;7395818;19;20576;-80
2023/04/18 09:14:49;;;;;;;14.27;8.67;;;12.70;99.90;;;;;;7392848;19;20134;-80
2023/04/18 09:17:36;;;;;;;11.20;8.60;;;12.70;99.90;;;;;;7394205;19;20131;-81
2023/04/18 09:20:08;;;;;;;14.93;8.60;;;12.60;99.90;;;;;;7393986;19;20231;-80
2023/04/18 09:22:49;;;;;;;11.13;8.37;;;12.60;99.90;;;;;;7392603;19;20159;-80
2023/04/18 09:25:52;;;;;;;11.70;8.40;;;12.50;99.90;;;;;;7396304;19;20770;-80
2023/04/18 09:28:28;;;;;;;11.17;8.23;;;12.60;99.90;;;;;;7397852;19;20134;-80
2023/04/18 09:31:06;;;;;;;12.73;9.10;;;12.60;99.90;;;;;;7399423;19;20611;-79
2023/04/18 09:33:32;;;;;;;12.13;8.53;;;12.50;99.90;;;;;;7391732;19;20147;-79
2023/04/18 09:36:19;;;;;;;11.50;8.33;;;12.50;99.90;;;;;;7390313;19;20227;-81
2023/04/18 09:38:50;;;;;;;12.77;7.83;;;12.50;99.90;;;;;;7392104;19;20218;-80
2023/04/18 09:41:16;;;;;;;10.77;8.30;;;12.40;99.90;;;;;;7390933;19;20221;-80
2023/04/18 09:43:42;;;;;;;12.73;8.10;;;12.50;99.90;;;;;;7391764;19;20150;-80
2023/04/18 09:46:08;;;;;;;14.47;8.37;;;12.50;99.90;;;;;;7391410;19;20150;-80
2023/04/18 09:48:35;;;;;;;15.50;8.90;;;12.50;99.90;;;;;;7391666;19;20762;-80
2023/04/18 09:51:06;;;;;;;10.47;8.33;;;12.80;99.90;;;;;;7392818;19;20147;-80
2023/04/18 09:53:39;;;;;;;11.77;8.67;;;12.80;99.90;;;;;;7392202;19;20162;-79
2023/04/18 09:56:23;;;;;;;11.20;8.07;;;12.80;99.90;;;;;;7392123;19;20150;-79
2023/04/18 09:58:54;;;;;;;11.47;8.23;;;12.80;99.90;;;;;;7402764;19;20565;-81
2023/04/18 10:01:21;;;;;;;12.03;8.60;;;12.70;99.90;;;;;;7393744;19;20155;-80
2023/04/18 10:03:49;;;;;;;10.60;7.93;;;12.60;99.90;;;;;;7393495;19;20123;-80
2023/04/18 10:06:16;;;;;;;11.97;8.53;;;12.90;99.90;;;;;;7392418;19;20142;-80
2023/04/18 10:08:46;;;;;;;13.47;9.17;;;13.10;99.90;;;;;;7392385;19;20131;-79
2023/04/18 10:11:12;;;;;;;13.60;8.35;;;13.20;99.90;;;;;;7393545;19;20135;-80
2023/04/18 10:13:41;;;;;;;11.70;7.70;;;13.30;99.90;;;;;;7401376;19;20162;-78
2023/04/18 10:16:08;;;;;;;13.27;9.00;;;13.20;99.90;;;;;;7396427;19;20149;-80
2023/04/18 10:18:35;;;;;;;10.37;7.50;;;13.30;99.90;;;;;;7397620;19;20171;-80
2023/04/18 10:21:03;;;;;;;9.67;7.10;;;13.30;99.90;;;;;;7400606;19;20150;-79
2023/04/18 10:23:34;;;;;;;9.83;7.90;;;13.40;99.90;;;;;;7405584;19;20517;-80
2023/04/18 10:26:01;;;;;;;11.77;7.53;;;13.40;99.90;;;;;;7392999;19;20174;-80
2023/04/18 10:28:57;;;;;;;14.37;8.00;;;13.40;99.90;;;;;;7390413;19;20206;-81
2023/04/18 10:31:25;;;;;;;10.20;7.10;;;13.60;99.90;;;;;;7390883;19;20205;-80
2023/04/18 10:33:58;;;;;;;9.65;7.47;;;13.80;99.90;;;;;;7390755;19;20142;-80
2023/04/18 10:36:26;;;;;;;8.67;6.57;;;13.90;99.90;;;;;;7391038;19;20142;-81
2023/04/18 10:38:54;;;;;;;11.93;7.47;;;14.00;99.90;;;;;;7390428;19;20134;-80
2023/04/18 10:41:26;;;;;;;9.63;6.60;;;14.10;99.90;;;;;;7391831;19;20158;-81
2023/04/18 10:44:07;;;;;;;10.17;7.70;;;14.20;99.90;;;;;;7393423;19;20195;-80
2023/04/18 10:46:51;;;;;;;12.03;7.17;;;14.20;99.90;;;;;;7392751;19;20139;-80
2023/04/18 10:49:35;;;;;;;8.73;6.40;;;14.20;99.90;;;;;;7392940;19;20507;-81
2023/04/18 10:52:02;;;;;;;6.23;5.33;;;14.30;99.90;;;;;;7391522;19;20138;-82
2023/04/18 10:54:31;;;;;;;7.93;5.87;;;14.20;99.90;;;;;;7389676;19;20151;-80
2023/04/18 10:57:00;;;;;;;8.98;6.00;;;14.30;99.90;;;;;;7392009;19;20616;-80
2023/04/18 10:59:28;;;;;;;8.60;6.37;;;14.20;99.90;;;;;;7396811;19;20130;-79
2023/04/18 11:01:58;;;;;;;10.60;5.43;;;14.20;99.90;;;;;;7404466;19;20142;-80
2023/04/18 11:04:25;;;;;;;9.13;5.80;;;14.30;99.90;;;;;;7390518;19;20138;-80
2023/04/18 11:06:57;;;;;;;6.80;5.33;;;14.30;99.90;;;;;;7395079;19;20139;-80
2023/04/18 11:09:24;;;;;;;7.93;5.93;;;14.30;99.90;;;;;;7394232;19;20242;-80
2023/04/18 11:12:10;;;;;;;8.07;5.70;;;14.10;99.90;;;;;;7391082;19;20147;-81
2023/04/18 11:14:47;;;;;;;6.78;4.68;;;14.30;99.90;;;;;;7394330;19;20147;-80
2023/04/18 11:17:20;;;;;;;8.88;5.38;;;14.20;99.90;;;;;;7390382;19;20144;-81
2023/04/18 11:19:46;;;;;;;8.37;5.50;;;14.20;99.90;;;;;;7392491;19;20141;-81
2023/04/18 11:22:13;;;;;;;6.95;5.20;;;14.30;99.90;;;;;;7389356;19;20655;-79
2023/04/18 11:24:39;;;;;;;7.30;5.23;;;14.30;99.90;;;;;;7389161;19;20148;-80
2023/04/18 11:27:08;;;;;;;7.53;5.00;;;14.30;99.90;;;;;;7388766;19;20559;-81
2023/04/18 11:29:34;;;;;;;6.97;5.22;;;14.30;99.90;;;;;;7388554;19;20150;-79
2023/04/18 11:31:59;;;;;;;7.25;4.78;;;14.20;99.90;;;;;;7398107;19;20728;-81
2023/04/18 11:34:30;;;;;;;6.10;4.73;;;14.30;99.90;;;;;;7389028;19;20268;-80
2023/04/18 11:36:56;;;;;;;4.83;4.23;;;14.30;99.90;;;;;;7388950;19;20156;-79
2023/04/18 11:39:22;;;;;;;5.55;3.90;;;14.40;99.90;;;;;;7389535;19;20138;-81
2023/04/18 11:41:51;;;;;;;6.78;4.40;;;14.40;99.90;;;;;;7388271;19;20151;-80
2023/04/18 11:44:24;;;;;;;6.60;4.50;;;14.30;99.90;;;;;;7389273;19;20141;-79
2023/04/18 11:46:51;;;;;;;6.67;4.90;;;14.20;99.90;;;;;;7389971;19;20139;-80
2023/04/18 11:49:28;;;;;;;5.40;4.40;;;14.20;99.90;;;;;;7387770;19;20135;-79
2023/04/18 11:51:54;;;;;;;7.20;4.65;;;14.20;99.90;;;;;;7391649;19;20134;-80
2023/04/18 11:54:41;;;;;;;5.13;4.18;;;14.20;99.90;;;;;;7390087;19;20135;-80
2023/04/18 11:57:19;;;;;;;6.68;4.38;;;14.00;99.90;;;;;;7389135;19;20150;-79
2023/04/18 11:59:56;;;;;;;5.53;3.90;;;14.20;99.90;;;;;;7402284;19;20676;-80
2023/04/18 12:02:25;;;;;;;6.38;4.60;;;14.00;99.90;;;;;;7387697;19;20150;-81
2023/04/18 12:04:58;;;;;;;5.70;4.50;;;14.10;99.90;;;;;;7389584;19;20142;-79
2023/04/18 12:07:41;;;;;;;7.43;5.10;;;14.10;99.90;;;;;;7387929;19;20171;-80
2023/04/18 12:10:20;;;;;;;7.93;5.32;;;14.20;99.90;;;;;;7387980;19;20135;-80
2023/04/18 12:12:57;;;;;;;6.27;5.10;;;14.20;99.90;;;;;;7390140;19;20535;-80
2023/04/18 12:15:27;;;;;;;11.10;6.35;;;14.10;99.90;;;;;;7389239;19;20591;-80
2023/04/18 12:18:18;;;;;;;8.70;6.37;;;14.20;99.90;;;;;;7388884;19;20135;-82
2023/04/18 12:20:49;;;;;;;7.47;5.53;;;14.10;99.90;;;;;;7386087;19;20202;-79
2023/04/18 12:23:36;;;;;;;7.00;5.43;;;14.10;99.90;;;;;;7395654;19;20478;-80
2023/04/18 12:26:05;;;;;;;8.30;5.67;;;14.30;99.90;;;;;;7394908;19;20587;-79
2023/04/18 12:28:31;;;;;;;10.73;5.20;;;14.30;99.90;;;;;;7406585;19;20533;-79
2023/04/18 12:30:57;;;;;;;5.67;4.33;;;14.30;99.90;;;;;;7388596;19;20533;-79
2023/04/18 12:33:23;;;;;;;5.10;4.03;;;14.40;99.90;;;;;;7386586;19;20189;-80
2023/04/18 12:35:51;;;;;;;5.45;4.10;;;14.20;99.90;;;;;;7385244;19;20547;-80
2023/04/18 12:38:22;;;;;;;5.20;3.95;;;14.40;99.90;;;;;;7388935;19;20591;-80
2023/04/18 12:40:49;;;;;;;5.45;3.78;;;14.50;99.90;;;;;;7386824;19;20186;-80
2023/04/18 12:43:15;;;;;;;4.10;3.60;;;14.50;99.90;;;;;;7388065;19;20127;-80